Time;durP1;ratioP1;P1;durP2;ratioP2;P2;SDS_P1;SDS_P2;PMS_P1;PMS_P2;Temp;Humidity;BMP_temperature;BMP_pressure;BME280_temperature;BME280_humidity;BME280_pressure;Samples;Min_cycle;Max_cycle;Signal;HPM_P1;HPM_P2
2022/07/26 00:01:50;;;;;;;;;1.67;1.67;;;;;23.54;46.13;101220.63;4918734;28;45692;-61
2022/07/26 00:04:15;;;;;;;;;1.00;1.00;;;;;23.56;46.09;101220.59;4918909;28;45428;-68
2022/07/26 00:06:41;;;;;;;;;0.33;0.33;;;;;23.51;46.37;101215.25;4918723;28;46203;-68
2022/07/26 00:09:06;;;;;;;;;1.00;1.00;;;;;23.50;46.18;101218.00;4918409;28;45399;-60
2022/07/26 00:11:32;;;;;;;;;2.00;0.67;;;;;23.45;46.28;101209.91;4918690;28;45439;-65
2022/07/26 00:14:03;;;;;;;;;1.00;1.00;;;;;23.27;46.68;101191.19;4929033;28;45406;-70
2022/07/26 00:16:28;;;;;;;;;0.00;0.00;;;;;23.21;46.62;101185.84;4932313;28;47263;-66
2022/07/26 00:18:55;;;;;;;;;0.00;0.00;;;;;23.37;46.98;101220.06;4930674;28;45439;-69
2022/07/26 00:21:21;;;;;;;;;1.00;1.00;;;;;23.23;46.90;101187.63;4918752;28;45510;-67
2022/07/26 00:23:46;;;;;;;;;0.67;0.67;;;;;23.36;46.83;101219.16;4922769;28;45586;-66
2022/07/26 00:26:11;;;;;;;;;1.00;1.00;;;;;23.28;46.76;101212.03;4918222;28;45446;-64
2022/07/26 00:28:37;;;;;;;;;0.67;0.00;;;;;23.37;46.95;101223.66;4925790;28;45429;-64
2022/07/26 00:31:03;;;;;;;;;2.00;0.67;;;;;23.36;46.73;101221.91;4935239;28;44910;-64
2022/07/26 00:33:28;;;;;;;;;1.00;1.00;;;;;23.28;46.87;101218.41;4935582;28;45035;-61
2022/07/26 00:35:53;;;;;;;;;2.00;1.00;;;;;23.29;46.90;101225.63;4935180;28;46430;-65
2022/07/26 00:38:19;;;;;;;;;1.00;1.00;;;;;23.15;46.93;101205.94;4918295;28;45860;-63
2022/07/26 00:40:44;;;;;;;;;0.33;0.33;;;;;23.27;47.01;101222.06;4920797;28;45554;-65
2022/07/26 00:43:09;;;;;;;;;2.00;1.00;;;;;23.22;47.13;101217.63;4918721;28;45414;-66
2022/07/26 00:45:35;;;;;;;;;1.00;1.00;;;;;23.09;47.10;101193.31;4918092;28;45973;-68
2022/07/26 00:48:00;;;;;;;;;1.00;1.00;;;;;23.11;47.35;101221.44;4918182;28;45441;-64
2022/07/26 00:50:25;;;;;;;;;1.00;1.00;;;;;22.94;47.61;101226.25;4919072;28;45339;-66
2022/07/26 00:52:51;;;;;;;;;1.00;1.00;;;;;22.84;48.15;101227.34;4928668;28;45619;-65
2022/07/26 00:55:17;;;;;;;;;2.00;1.00;;;;;22.78;48.25;101215.59;4933487;28;45746;-68
2022/07/26 00:57:43;;;;;;;;;0.67;0.00;;;;;22.78;48.16;101221.06;4927854;28;45036;-64
2022/07/26 01:00:15;;;;;;;;;1.00;1.00;;;;;22.71;48.32;101204.84;4926793;28;45547;-68
2022/07/26 01:02:41;;;;;;;;;0.33;0.33;;;;;22.67;48.43;101217.63;4924606;28;45637;-63
2022/07/26 01:05:07;;;;;;;;;0.67;0.67;;;;;22.57;48.59;101222.31;4929783;28;45283;-64
2022/07/26 01:07:34;;;;;;;;;0.00;0.00;;;;;22.42;48.81;101208.94;4932348;28;45445;-64
2022/07/26 01:10:01;;;;;;;;;1.00;1.00;;;;;22.37;49.25;101219.91;4934778;28;45503;-63
2022/07/26 01:12:26;;;;;;;;;1.00;1.00;;;;;22.33;49.19;101219.97;4918009;28;45454;-60
2022/07/26 01:14:52;;;;;;;;;1.33;0.33;;;;;22.36;49.18;101209.03;4917474;28;49574;-65
2022/07/26 01:17:17;;;;;;;;;1.00;1.00;;;;;22.22;49.11;101179.25;4925870;28;45450;-61
2022/07/26 01:19:42;;;;;;;;;0.00;0.00;;;;;22.36;49.21;101203.59;4923079;28;45543;-67
2022/07/26 01:22:08;;;;;;;;;1.00;1.00;;;;;22.28;49.26;101211.84;4917967;28;45367;-62
2022/07/26 01:24:33;;;;;;;;;2.33;1.00;;;;;22.16;49.81;101198.38;4918022;28;46400;-66
2022/07/26 01:26:58;;;;;;;;;0.33;0.33;;;;;22.12;50.16;101213.88;4923564;28;45465;-67
2022/07/26 01:29:24;;;;;;;;;0.00;0.00;;;;;22.03;50.05;101212.19;4900413;28;45814;-62
2022/07/26 01:31:51;;;;;;;;;2.00;1.00;;;;;22.01;50.19;101216.75;4916955;28;45497;-64
2022/07/26 01:34:17;;;;;;;;;1.00;1.00;;;;;22.10;49.81;101215.72;4917708;28;46260;-64
2022/07/26 01:36:42;;;;;;;;;1.00;1.00;;;;;22.04;49.93;101211.28;4917477;28;45390;-68
2022/07/26 01:39:08;;;;;;;;;1.00;1.00;;;;;22.06;50.12;101220.31;4917299;28;45387;-62
2022/07/26 01:41:33;;;;;;;;;2.00;1.00;;;;;21.84;50.23;101183.41;4917586;28;45274;-65
2022/07/26 01:43:59;;;;;;;;;2.00;0.33;;;;;22.02;50.27;101209.47;4926923;28;45405;-62
2022/07/26 01:46:24;;;;;;;;;0.00;0.00;;;;;22.01;50.41;101210.38;4919185;28;45577;-68
2022/07/26 01:48:50;;;;;;;;;0.00;0.00;;;;;21.87;50.35;101194.25;4919191;28;45494;-62
2022/07/26 01:51:16;;;;;;;;;2.00;0.00;;;;;21.99;50.30;101213.16;4918225;28;45507;-61
2022/07/26 01:53:44;;;;;;;;;0.00;0.00;;;;;21.79;50.52;101171.72;4917565;28;45587;-67
2022/07/26 01:56:09;;;;;;;;;3.33;0.00;;;;;21.55;50.51;101143.91;4917758;28;45477;-68
2022/07/26 01:58:34;;;;;;;;;1.33;0.00;;;;;21.83;50.56;101215.16;4917638;28;45376;-61
2022/07/26 02:01:00;;;;;;;;;2.00;0.00;;;;;21.71;50.73;101197.19;4921090;28;45437;-63
2022/07/26 02:03:25;;;;;;;;;0.00;0.00;;;;;21.58;50.81;101171.06;4917000;28;45304;-60
2022/07/26 02:05:50;;;;;;;;;1.00;1.00;;;;;21.76;50.81;101220.69;4921093;28;45514;-61
2022/07/26 02:08:16;;;;;;;;;0.00;0.00;;;;;21.76;50.79;101215.25;4917163;28;45459;-65
2022/07/26 02:10:59;;;;;;;;;1.00;1.00;;;;;21.73;51.33;101210.78;4926577;28;45522;-66
2022/07/26 02:13:28;;;;;;;;;0.00;0.00;;;;;21.62;51.14;101202.72;4924381;28;45747;-64
2022/07/26 02:15:54;;;;;;;;;0.00;0.00;;;;;21.59;50.96;101210.03;4916711;28;45426;-65
2022/07/26 02:18:19;;;;;;;;;2.00;0.00;;;;;21.53;51.56;101203.75;4938685;28;45335;-64
2022/07/26 02:20:44;;;;;;;;;0.67;0.00;;;;;21.45;51.62;101197.47;4917242;28;45367;-68
2022/07/26 02:23:11;;;;;;;;;2.00;0.00;;;;;21.16;51.45;101135.28;4916640;28;45668;-62
2022/07/26 02:25:36;;;;;;;;;0.00;0.00;;;;;21.62;51.55;101210.88;4916723;28;45418;-64
2022/07/26 02:28:02;;;;;;;;;0.33;0.33;;;;;21.62;51.44;101213.63;4916757;28;45350;-65
2022/07/26 02:30:27;;;;;;;;;1.33;0.33;;;;;21.57;51.68;101211.88;4916778;28;45303;-64
2022/07/26 02:32:53;;;;;;;;;2.00;0.00;;;;;21.54;51.77;101215.53;4918429;28;45383;-62
2022/07/26 02:35:18;;;;;;;;;0.33;0.33;;;;;21.49;51.89;101214.69;4919650;28;45447;-68
2022/07/26 02:37:44;;;;;;;;;2.00;0.00;;;;;21.52;52.12;101214.66;4917664;28;45373;-69
2022/07/26 02:40:10;;;;;;;;;0.00;0.00;;;;;21.50;52.08;101214.66;4916957;28;45280;-67
2022/07/26 02:42:35;;;;;;;;;0.00;0.00;;;;;21.50;51.79;101213.78;4916804;28;45512;-68
2022/07/26 02:45:01;;;;;;;;;1.00;1.00;;;;;21.49;52.20;101207.41;4916919;28;45420;-61
2022/07/26 02:47:26;;;;;;;;;1.00;1.00;;;;;21.48;52.38;101207.41;4917209;28;45650;-66
2022/07/26 02:49:52;;;;;;;;;0.33;0.33;;;;;21.46;52.68;101211.94;4924740;28;45558;-64
2022/07/26 02:52:17;;;;;;;;;1.00;1.00;;;;;21.21;52.59;101182.31;4916252;28;45506;-69
2022/07/26 02:54:43;;;;;;;;;0.67;0.67;;;;;21.36;52.84;101216.59;4898879;28;45849;-61
2022/07/26 02:57:08;;;;;;;;;1.00;0.00;;;;;21.33;52.80;101217.53;4917043;28;45608;-61
2022/07/26 02:59:34;;;;;;;;;1.00;1.00;;;;;21.29;53.20;101217.59;4916681;28;45537;-65
2022/07/26 03:01:59;;;;;;;;;1.00;1.00;;;;;21.17;53.35;101219.50;4915723;28;45820;-64
2022/07/26 03:04:25;;;;;;;;;3.33;0.67;;;;;21.15;53.39;101215.91;4916128;28;45480;-61
2022/07/26 03:06:50;;;;;;;;;2.33;1.00;;;;;21.24;53.48;101231.22;4919846;28;45365;-67
2022/07/26 03:09:15;;;;;;;;;1.00;1.00;;;;;21.23;53.52;101223.97;4920377;28;45273;-61
2022/07/26 03:11:41;;;;;;;;;1.00;1.00;;;;;20.97;53.55;101188.94;4917318;28;45465;-60
2022/07/26 03:14:06;;;;;;;;;2.00;0.33;;;;;21.11;54.18;101221.38;4932742;28;45471;-65
2022/07/26 03:16:32;;;;;;;;;1.00;1.00;;;;;21.04;54.23;101203.34;4926820;28;45353;-66
2022/07/26 03:18:59;;;;;;;;;3.00;0.00;;;;;21.05;54.60;101221.44;4942323;28;44992;-62
2022/07/26 03:21:24;;;;;;;;;0.33;0.33;;;;;21.05;54.34;101222.34;4930312;28;45340;-62
2022/07/26 03:23:49;;;;;;;;;1.00;1.00;;;;;21.07;54.39;101220.53;4916544;28;45625;-66
2022/07/26 03:26:15;;;;;;;;;1.00;1.00;;;;;21.12;54.32;101234.06;4916290;28;45616;-62
2022/07/26 03:28:41;;;;;;;;;4.00;1.00;;;;;20.94;54.78;101210.69;4916116;28;45454;-60
2022/07/26 03:31:07;;;;;;;;;2.00;1.00;;;;;20.98;54.75;101215.16;4915964;28;46151;-64
2022/07/26 03:33:32;;;;;;;;;1.00;1.00;;;;;21.04;54.73;101239.56;4915577;28;45535;-69
2022/07/26 03:35:57;;;;;;;;;1.00;1.00;;;;;20.97;55.06;101229.66;4916000;28;45459;-70
2022/07/26 03:38:23;;;;;;;;;1.00;1.00;;;;;20.92;55.11;101234.22;4920204;28;45331;-63
2022/07/26 03:40:48;;;;;;;;;1.00;1.00;;;;;20.86;55.42;101234.28;4916477;28;45347;-69
2022/07/26 03:43:13;;;;;;;;;0.33;0.33;;;;;20.78;55.91;101237.06;4927108;28;45204;-65
2022/07/26 03:45:40;;;;;;;;;2.00;2.00;;;;;20.54;55.81;101216.38;4925979;28;45406;-62
2022/07/26 03:48:06;;;;;;;;;0.33;0.33;;;;;20.75;55.79;101239.78;4916098;28;45296;-62
2022/07/26 03:50:31;;;;;;;;;1.67;1.67;;;;;20.74;56.12;101248.84;4914985;28;46098;-67
2022/07/26 03:52:57;;;;;;;;;1.00;1.00;;;;;20.72;55.87;101243.47;4915615;28;45613;-67
2022/07/26 03:58:06;;;;;;;;;4.00;2.00;;;;;20.64;55.90;101228.13;4916207;28;45477;-64
2022/07/26 04:00:31;;;;;;;;;1.00;1.00;;;;;20.45;56.17;101211.94;4915328;28;45470;-63
2022/07/26 04:02:56;;;;;;;;;2.00;2.00;;;;;20.71;56.10;101251.63;4915633;28;45415;-67
2022/07/26 04:05:22;;;;;;;;;0.33;0.33;;;;;20.64;56.27;101242.59;4915904;28;45442;-63
2022/07/26 04:07:47;;;;;;;;;1.00;0.00;;;;;20.61;56.62;101245.31;4917944;28;45589;-70
2022/07/26 04:10:14;;;;;;;;;1.67;1.00;;;;;20.60;56.90;101247.09;4928845;28;45576;-65
2022/07/26 04:12:39;;;;;;;;;0.00;0.00;;;;;20.48;56.57;101221.88;4922139;28;45341;-64
2022/07/26 04:15:05;;;;;;;;;2.00;0.67;;;;;20.58;56.95;101242.63;4921886;28;45580;-67
2022/07/26 04:17:40;;;;;;;;;1.67;1.67;;;;;20.44;57.03;101238.19;4928925;28;45326;-63
2022/07/26 04:20:08;;;;;;;;;1.33;1.00;;;;;20.39;57.13;101214.69;4920681;28;46404;-61
2022/07/26 04:22:35;;;;;;;;;2.00;2.00;;;;;20.12;57.03;101150.66;4924563;28;45345;-63
2022/07/26 04:25:02;;;;;;;;;6.33;2.00;;;;;20.63;56.89;101248.94;4926075;28;45411;-63
2022/07/26 04:27:27;;;;;;;;;3.33;2.00;;;;;20.63;57.28;101240.78;4918431;28;45580;-61
2022/07/26 04:29:53;;;;;;;;;2.00;2.00;;;;;20.60;57.00;101225.38;4920057;28;45449;-62
2022/07/26 04:32:18;;;;;;;;;2.33;1.33;;;;;20.73;57.01;101247.06;4918834;28;45635;-60
2022/07/26 04:34:44;;;;;;;;;1.33;1.00;;;;;20.81;56.95;101247.91;4918890;28;45387;-60
2022/07/26 04:37:09;;;;;;;;;1.67;1.67;;;;;20.90;56.64;101250.53;4918813;28;45316;-69
2022/07/26 04:39:34;;;;;;;;;3.33;1.00;;;;;20.96;56.43;101246.88;4918180;28;45553;-65
2022/07/26 04:42:00;;;;;;;;;0.00;0.00;;;;;20.66;56.40;101191.00;4917602;28;45827;-61
2022/07/26 04:44:25;;;;;;;;;1.00;1.00;;;;;20.86;56.70;101218.88;4930719;28;45432;-65
2022/07/26 04:46:50;;;;;;;;;4.67;2.00;;;;;20.90;56.64;101238.78;4920410;28;45523;-61
2022/07/26 04:49:15;;;;;;;;;1.00;1.00;;;;;21.05;56.45;101254.97;4917716;28;45611;-63
2022/07/26 04:51:41;;;;;;;;;2.00;1.00;;;;;21.10;56.09;101260.31;4917795;28;45498;-64
2022/07/26 04:54:06;;;;;;;;;1.33;1.33;;;;;21.10;56.52;101255.81;4919215;28;45562;-63
2022/07/26 04:56:31;;;;;;;;;3.00;2.00;;;;;21.13;56.40;101271.16;4918320;28;45602;-65
2022/07/26 04:58:57;;;;;;;;;2.00;1.00;;;;;21.09;56.57;101254.00;4917831;28;53408;-64
2022/07/26 05:01:22;;;;;;;;;3.67;2.00;;;;;21.20;56.23;101264.78;4938598;28;45433;-65
2022/07/26 05:03:47;;;;;;;;;3.33;2.00;;;;;21.02;56.26;101227.81;4925621;28;45228;-67
2022/07/26 05:06:31;;;;;;;;;2.00;2.00;;;;;21.14;55.92;101254.84;4888079;28;45503;-65
2022/07/26 05:08:57;;;;;;;;;2.67;1.67;;;;;21.28;56.01;101281.91;4918488;28;45781;-65
2022/07/26 05:11:22;;;;;;;;;3.67;2.00;;;;;20.95;56.05;101207.03;4917730;28;45347;-64
2022/07/26 05:13:48;;;;;;;;;3.00;2.00;;;;;21.27;56.16;101263.78;4918323;28;45288;-65
2022/07/26 05:16:13;;;;;;;;;10.33;8.33;;;;;21.25;56.20;101272.88;4929567;28;45489;-68
2022/07/26 05:18:38;;;;;;;;;2.00;1.00;;;;;21.24;56.21;101273.81;4931056;28;45476;-65
2022/07/26 05:21:05;;;;;;;;;9.00;4.00;;;;;21.22;56.32;101281.03;4926189;28;45300;-66
2022/07/26 05:23:30;;;;;;;;;2.00;2.00;;;;;21.06;56.43;101248.59;4917550;28;45531;-68
2022/07/26 05:25:56;;;;;;;;;2.33;2.00;;;;;21.33;56.11;101279.13;4917589;28;45547;-66
2022/07/26 05:28:21;;;;;;;;;3.67;3.00;;;;;21.36;55.96;101281.81;4900074;28;48343;-70
2022/07/26 05:30:46;;;;;;;;;2.67;2.00;;;;;21.32;55.98;101280.97;4917297;28;45772;-68
2022/07/26 05:33:12;;;;;;;;;3.00;3.00;;;;;21.38;55.75;101287.25;4918775;28;46010;-66
2022/07/26 05:35:37;;;;;;;;;3.00;3.00;;;;;21.36;55.90;101284.53;4919753;28;45471;-65
2022/07/26 05:38:03;;;;;;;;;4.00;2.33;;;;;21.23;56.10;101278.31;4918999;28;45544;-67
2022/07/26 05:40:28;;;;;;;;;2.00;1.00;;;;;21.16;56.24;101272.03;4917099;28;45366;-63
2022/07/26 05:42:53;;;;;;;;;1.67;1.67;;;;;21.27;56.35;101288.25;4917439;28;45336;-63
2022/07/26 05:45:19;;;;;;;;;3.67;2.67;;;;;21.29;56.43;101286.41;4917195;28;45517;-65
2022/07/26 05:47:44;;;;;;;;;2.00;2.00;;;;;21.22;56.34;101276.53;4916791;28;46044;-64
2022/07/26 05:50:09;;;;;;;;;2.67;2.67;;;;;21.39;56.36;101287.22;4931939;28;47814;-63
2022/07/26 05:52:35;;;;;;;;;3.33;2.00;;;;;21.44;56.02;101282.66;4923765;28;45454;-64
2022/07/26 05:55:00;;;;;;;;;5.00;3.67;;;;;21.31;55.87;101272.81;4919735;28;45524;-65
2022/07/26 05:57:26;;;;;;;;;2.00;2.00;;;;;21.24;55.71;101257.50;4916758;28;45837;-64
2022/07/26 05:59:51;;;;;;;;;3.33;2.00;;;;;21.47;55.91;101287.16;4916566;28;45344;-61
2022/07/26 06:02:16;;;;;;;;;3.67;3.67;;;;;21.53;55.74;101287.13;4916531;28;46500;-62
2022/07/26 06:04:42;;;;;;;;;3.00;3.00;;;;;21.52;55.67;101285.34;4916647;28;45261;-62
2022/07/26 06:07:07;;;;;;;;;3.00;3.00;;;;;21.51;55.71;101295.31;4916996;28;46055;-67
2022/07/26 06:09:32;;;;;;;;;2.00;2.00;;;;;21.47;55.70;101288.09;4923401;28;45583;-63
2022/07/26 06:11:58;;;;;;;;;3.00;3.00;;;;;21.31;55.93;101272.81;4925857;28;45298;-60
2022/07/26 06:14:23;;;;;;;;;5.00;5.00;;;;;21.48;55.71;101283.53;4918016;28;45394;-62
2022/07/26 06:16:49;;;;;;;;;3.67;3.67;;;;;21.52;55.72;101298.94;4920609;28;46227;-64
2022/07/26 06:19:14;;;;;;;;;6.33;2.67;;;;;21.33;55.82;101268.25;4925467;28;45329;-65
2022/07/26 06:21:41;;;;;;;;;8.00;2.00;;;;;21.54;55.84;101300.69;4916572;28;45525;-62
2022/07/26 06:24:06;;;;;;;;;5.33;5.33;;;;;21.67;55.51;101308.75;4917789;28;45505;-69
2022/07/26 06:26:37;;;;;;;;;3.33;3.00;;;;;21.51;55.24;101268.13;4916816;28;45867;-68
2022/07/26 06:29:02;;;;;;;;;3.00;3.00;;;;;21.80;54.92;101317.69;4930791;28;45361;-65
2022/07/26 06:31:28;;;;;;;;;2.67;2.00;;;;;21.82;55.10;101316.72;4929792;28;45304;-64
2022/07/26 06:33:53;;;;;;;;;5.00;5.00;;;;;21.81;55.00;101300.41;4918876;28;45477;-67
2022/07/26 06:36:19;;;;;;;;;5.67;4.00;;;;;21.99;54.49;101315.63;4916097;28;45386;-65
2022/07/26 06:38:44;;;;;;;;;3.00;3.00;;;;;21.56;54.60;101243.59;4916042;28;45385;-68
2022/07/26 06:41:09;;;;;;;;;3.00;3.00;;;;;21.76;54.52;101286.88;4921928;28;45447;-65
2022/07/26 06:43:34;;;;;;;;;3.33;2.00;;;;;21.88;54.63;101322.09;4926651;28;45312;-65
2022/07/26 06:46:00;;;;;;;;;5.00;3.00;;;;;21.88;54.87;101315.78;4917264;28;46195;-67
2022/07/26 06:48:25;;;;;;;;;3.67;3.00;;;;;21.93;54.60;101315.69;4915628;28;45391;-69
2022/07/26 06:50:51;;;;;;;;;4.00;3.00;;;;;21.93;54.58;101310.25;4915512;28;45503;-68
2022/07/26 06:53:16;;;;;;;;;4.67;3.67;;;;;21.95;54.26;101303.88;4915769;28;45590;-68
2022/07/26 06:55:42;;;;;;;;;5.00;3.33;;;;;22.08;54.25;101319.16;4915653;28;46235;-66
2022/07/26 06:58:08;;;;;;;;;3.33;2.33;;;;;22.13;54.31;101319.09;4915629;28;45543;-63
2022/07/26 07:00:33;;;;;;;;;4.67;2.00;;;;;22.09;53.82;101301.00;4924106;28;45514;-64
2022/07/26 07:02:58;;;;;;;;;3.67;2.00;;;;;22.26;53.64;101323.47;4916102;28;45564;-68
2022/07/26 07:05:24;;;;;;;;;4.67;2.67;;;;;22.21;53.78;101313.56;4915718;28;46526;-67
2022/07/26 07:07:50;;;;;;;;;3.67;3.00;;;;;22.33;53.42;101320.69;4915508;28;45284;-67
2022/07/26 07:10:15;;;;;;;;;13.33;6.00;;;;;22.40;53.39;101323.28;4915484;28;45518;-69
2022/07/26 07:12:42;;;;;;;;;2.67;2.67;;;;;22.45;53.18;101320.53;4916008;28;45552;-70
2022/07/26 07:15:08;;;;;;;;;3.00;3.00;;;;;22.38;53.10;101308.81;4926964;28;45370;-70
2022/07/26 07:17:33;;;;;;;;;2.00;2.00;;;;;22.41;53.01;101327.84;4948385;28;45112;-67
2022/07/26 07:19:59;;;;;;;;;7.67;5.67;;;;;22.21;53.14;101309.00;4935790;28;45684;-65
2022/07/26 07:22:24;;;;;;;;;2.00;2.00;;;;;22.30;53.50;101323.47;4919033;28;45716;-66
2022/07/26 07:24:50;;;;;;;;;10.33;7.33;;;;;22.41;52.99;101325.13;4897869;28;46881;-68
2022/07/26 07:27:16;;;;;;;;;3.00;3.00;;;;;22.43;53.00;101334.16;4915614;28;45367;-69
2022/07/26 07:29:41;;;;;;;;;5.67;4.33;;;;;22.36;53.16;101312.50;4915849;28;45451;-68
2022/07/26 07:32:07;;;;;;;;;2.33;2.33;;;;;22.55;52.93;101330.34;4916111;28;45417;-67
2022/07/26 07:34:32;;;;;;;;;5.67;4.00;;;;;22.59;52.66;101326.69;4915855;28;45618;-68
2022/07/26 07:36:57;;;;;;;;;5.00;3.33;;;;;22.20;52.29;101249.16;4916005;28;45527;-70
2022/07/26 07:39:23;;;;;;;;;7.67;6.00;;;;;22.63;52.26;101313.91;4915813;28;45486;-70
2022/07/26 07:41:48;;;;;;;;;4.00;4.00;;;;;22.87;51.53;101337.19;4915585;28;45477;-66
2022/07/26 07:44:14;;;;;;;;;6.67;4.33;;;;;22.95;51.06;101331.59;4919018;28;45969;-65
2022/07/26 07:46:39;;;;;;;;;8.00;6.67;;;;;23.01;51.02;101336.94;4918897;28;45574;-69
2022/07/26 07:49:05;;;;;;;;;6.00;3.00;;;;;23.00;50.88;101311.53;4919131;28;45434;-64
2022/07/26 07:51:32;;;;;;;;;4.00;4.00;;;;;23.19;50.56;101322.16;4919048;28;45344;-68
2022/07/26 07:53:57;;;;;;;;;6.00;5.00;;;;;23.13;49.91;101303.16;4918771;28;45473;-68
2022/07/26 07:56:23;;;;;;;;;4.00;2.67;;;;;23.28;50.17;101332.00;4918641;28;45306;-72
2022/07/26 07:58:48;;;;;;;;;5.00;2.67;;;;;23.08;50.31;101313.25;4918689;28;45413;-70
2022/07/26 08:01:13;;;;;;;;;4.33;3.00;;;;;23.14;50.14;101332.25;4908245;28;45549;-63
2022/07/26 08:03:39;;;;;;;;;3.33;3.00;;;;;22.92;49.83;101326.22;4925546;28;45283;-69
2022/07/26 08:06:07;;;;;;;;;4.00;2.00;;;;;22.88;49.41;101321.72;4918519;28;45431;-70
2022/07/26 08:08:33;;;;;;;;;3.00;3.00;;;;;22.79;49.66;101314.59;4918708;28;45599;-69
2022/07/26 08:10:58;;;;;;;;;18.33;15.33;;;;;22.91;49.35;101324.41;4917834;28;45636;-66
2022/07/26 08:13:23;;;;;;;;;3.00;3.00;;;;;23.14;49.01;101340.41;4918221;28;45796;-69
2022/07/26 08:15:51;;;;;;;;;4.00;4.00;;;;;23.15;49.33;101328.59;4918043;28;45288;-70
2022/07/26 08:18:17;;;;;;;;;3.00;3.00;;;;;23.25;48.80;101332.06;4931902;28;45434;-71
2022/07/26 08:20:42;;;;;;;;;37.25;29.25;;;;;23.36;48.60;101339.16;4918759;28;45462;-70
2022/07/26 08:23:07;;;;;;;;;77.25;59.50;;;;;23.48;47.92;101329.84;4918246;28;46196;-64
2022/07/26 08:25:33;;;;;;;;;1.00;1.00;;;;;23.47;47.05;101322.56;4918251;28;45414;-71
2022/07/26 08:27:58;;;;;;;;;2.00;2.00;;;;;23.57;47.61;101336.94;4918542;28;45386;-68
2022/07/26 08:30:23;;;;;;;;;9.67;9.67;;;;;23.59;47.21;101323.28;4918716;28;45772;-69
2022/07/26 08:32:49;;;;;;;;;3.33;3.33;;;;;23.80;46.78;101341.09;4927054;28;46112;-63
2022/07/26 08:35:14;;;;;;;;;5.67;3.00;;;;;23.91;46.33;101339.09;4917611;28;46516;-65
2022/07/26 08:37:39;;;;;;;;;1.33;1.00;;;;;23.89;45.96;101330.94;4918312;28;45563;-70
2022/07/26 08:40:06;;;;;;;;;2.67;2.00;;;;;24.05;45.99;101341.53;4918550;28;45492;-64
2022/07/26 08:42:31;;;;;;;;;7.67;7.00;;;;;24.15;45.67;101343.13;4917859;28;46273;-67
2022/07/26 08:44:57;;;;;;;;;4.00;2.00;;;;;24.15;46.08;101345.88;4917590;28;45343;-68
2022/07/26 08:47:22;;;;;;;;;22.67;16.67;;;;;24.20;45.40;101345.78;4917677;28;45332;-68
2022/07/26 08:49:47;;;;;;;;;7.33;3.33;;;;;24.05;45.21;101320.59;4918138;28;45484;-65
2022/07/26 08:52:14;;;;;;;;;3.00;2.00;;;;;24.20;45.58;101341.19;4917479;28;46198;-65
2022/07/26 08:54:46;;;;;;;;;3.00;3.00;;;;;24.29;45.15;101348.31;4917802;28;45345;-68
2022/07/26 08:57:11;;;;;;;;;7.67;7.67;;;;;24.20;45.25;101329.41;4917685;28;45401;-67
2022/07/26 08:59:37;;;;;;;;;4.00;4.00;;;;;24.35;44.90;101329.06;4917999;28;45486;-67
2022/07/26 09:02:05;;;;;;;;;3.00;2.67;;;;;24.48;45.01;101357.00;4917239;28;45846;-63
2022/07/26 09:04:37;;;;;;;;;3.00;3.00;;;;;24.51;44.76;101358.78;4917696;28;45414;-68
2022/07/26 09:07:09;;;;;;;;;3.00;3.00;;;;;24.54;44.67;101356.00;4917617;28;45471;-69
2022/07/26 09:09:37;;;;;;;;;9.33;8.33;;;;;24.61;45.07;101360.41;4918012;28;45357;-70
2022/07/26 09:12:18;;;;;;;;;10.67;9.33;;;;;24.62;44.11;101360.38;4927283;28;46621;-69
2022/07/26 09:14:47;;;;;;;;;6.67;5.00;;;;;24.59;43.88;101348.63;4918052;28;45340;-70
2022/07/26 09:17:18;;;;;;;;;5.00;3.00;;;;;24.63;44.06;101359.47;4925564;28;45421;-69
2022/07/26 09:19:45;;;;;;;;;8.33;4.00;;;;;24.56;43.62;101373.28;4922457;28;45532;-67
2022/07/26 09:22:14;;;;;;;;;4.33;2.67;;;;;24.46;43.96;101372.53;4917250;28;46311;-69
2022/07/26 09:24:45;;;;;;;;;6.33;4.33;;;;;24.41;43.95;101367.16;4918160;28;45315;-69
2022/07/26 09:27:13;;;;;;;;;4.67;2.67;;;;;24.22;44.11;101339.38;4918477;28;45584;-70
2022/07/26 09:29:52;;;;;;;;;2.33;2.33;;;;;24.22;44.79;101369.41;4917953;28;45338;-66
2022/07/26 09:32:21;;;;;;;;;3.67;2.00;;;;;24.12;44.95;101380.53;4917035;28;46782;-67
2022/07/26 09:34:55;;;;;;;;;17.00;16.00;;;;;23.72;45.17;101301.19;4917187;28;45601;-68
2022/07/26 09:37:34;;;;;;;;;4.33;4.33;;;;;24.23;44.69;101371.19;4916836;28;45368;-66
2022/07/26 09:40:02;;;;;;;;;3.00;2.33;;;;;24.14;44.57;101334.97;4917208;28;45401;-68
2022/07/26 09:42:28;;;;;;;;;8.33;3.33;;;;;24.39;44.78;101384.53;4918693;28;47626;-68
2022/07/26 09:44:54;;;;;;;;;3.67;3.67;;;;;24.51;44.68;101370.59;4935780;28;45448;-66
2022/07/26 09:47:20;;;;;;;;;3.00;3.00;;;;;24.57;43.67;101375.09;4918825;28;45459;-68
2022/07/26 09:49:46;;;;;;;;;2.67;2.67;;;;;24.60;43.54;101384.09;4917642;28;45549;-66
2022/07/26 09:52:17;;;;;;;;;3.00;3.00;;;;;24.52;43.50;101377.88;4916982;28;46579;-64
2022/07/26 09:54:45;;;;;;;;;2.67;2.00;;;;;24.52;43.42;101386.06;4916990;28;45411;-68
2022/07/26 09:57:14;;;;;;;;;5.33;4.00;;;;;24.52;43.74;101376.97;4916423;28;45386;-69
2022/07/26 09:59:40;;;;;;;;;3.00;3.00;;;;;24.62;43.93;101384.97;4917059;28;45495;-70
2022/07/26 10:02:06;;;;;;;;;3.00;2.00;;;;;24.76;43.64;101379.19;4916700;28;45703;-64
2022/07/26 10:04:31;;;;;;;;;10.00;8.67;;;;;24.81;43.19;101382.75;4915650;28;45433;-69
2022/07/26 10:06:57;;;;;;;;;5.00;3.67;;;;;24.75;42.96;101363.75;4916497;28;45483;-66
2022/07/26 10:09:22;;;;;;;;;4.33;3.33;;;;;24.73;42.41;101383.81;4916188;28;45584;-64
2022/07/26 10:11:59;;;;;;;;;3.00;3.00;;;;;24.58;42.68;101361.41;4915820;28;46102;-65
2022/07/26 10:14:44;;;;;;;;;7.67;6.00;;;;;24.69;41.94;101355.69;4916413;28;45543;-64
2022/07/26 10:17:28;;;;;;;;;4.33;4.33;;;;;24.88;42.00;101388.97;4910016;28;45490;-62
2022/07/26 10:20:03;;;;;;;;;3.67;3.67;;;;;25.00;41.38;101390.50;4920593;28;45546;-72
2022/07/26 10:22:34;;;;;;;;;7.00;4.00;;;;;25.08;40.75;101383.03;4915941;28;46122;-64
2022/07/26 10:25:18;;;;;;;;;10.67;10.67;;;;;25.23;40.78;101380.84;4911654;28;45485;-66
2022/07/26 10:27:43;;;;;;;;;19.67;14.00;;;;;25.31;40.21;101387.97;4915652;28;45357;-67
2022/07/26 10:30:15;;;;;;;;;4.67;3.33;;;;;25.42;40.18;101386.78;4915681;28;45512;-69
2022/07/26 10:32:56;;;;;;;;;1.33;1.33;;;;;25.53;39.13;101388.31;4915764;28;45395;-68
2022/07/26 10:35:33;;;;;;;;;1.67;1.67;;;;;25.52;38.98;101386.53;4916067;28;45430;-63
2022/07/26 10:38:13;;;;;;;;;3.67;3.00;;;;;25.56;39.05;101365.47;4916225;28;45368;-65
2022/07/26 10:40:54;;;;;;;;;3.00;2.00;;;;;25.72;36.43;101382.34;4916334;28;45727;-69
2022/07/26 10:43:19;;;;;;;;;3.33;1.00;;;;;25.74;37.35;101377.75;4915712;28;45683;-67
2022/07/26 10:45:45;;;;;;;;;11.00;10.00;;;;;25.74;37.93;101377.75;4915573;28;45748;-67
2022/07/26 10:48:22;;;;;;;;;3.33;3.33;;;;;25.68;37.77;101377.91;4915730;28;45370;-68
2022/07/26 10:50:51;;;;;;;;;5.67;5.00;;;;;25.67;37.92;101385.22;4916748;28;45595;-64
2022/07/26 10:53:22;;;;;;;;;4.33;2.33;;;;;25.49;36.15;101342.84;4915843;28;46110;-67
2022/07/26 10:55:54;;;;;;;;;3.67;2.00;;;;;25.84;36.05;101384.78;4919480;28;45529;-62
2022/07/26 10:58:21;;;;;;;;;2.33;2.33;;;;;25.67;36.92;101356.94;4907569;28;45463;-66
2022/07/26 11:00:54;;;;;;;;;6.33;6.33;;;;;25.75;36.93;101352.16;4915440;28;45735;-66
2022/07/26 11:03:19;;;;;;;;;2.33;2.33;;;;;25.98;36.60;101381.69;4915039;28;46179;-66
2022/07/26 11:05:45;;;;;;;;;2.00;1.33;;;;;26.08;36.91;101375.00;4915373;28;45513;-69
2022/07/26 11:08:10;;;;;;;;;7.33;5.00;;;;;26.21;36.51;101381.03;4915676;28;45265;-60
2022/07/26 11:10:46;;;;;;;;;6.33;5.67;;;;;26.09;36.08;101356.75;4916175;28;45450;-68
2022/07/26 11:13:15;;;;;;;;;4.00;4.00;;;;;26.10;35.27;101370.41;4915751;28;46345;-67
2022/07/26 11:15:45;;;;;;;;;2.33;2.33;;;;;26.01;35.27;101367.91;4915418;28;45513;-62
2022/07/26 11:18:15;;;;;;;;;3.00;3.00;;;;;25.99;36.23;101372.53;4932426;28;45271;-64
2022/07/26 11:20:42;;;;;;;;;4.67;4.00;;;;;26.05;36.75;101376.94;4919314;28;45538;-68
2022/07/26 11:23:27;;;;;;;;;1.67;1.00;;;;;26.09;35.62;101371.31;4918349;28;46004;-63
2022/07/26 11:26:04;;;;;;;;;3.00;3.00;;;;;26.20;34.86;101372.84;4918743;28;45436;-62